createdAt,value
2022-08-30T00:00:06.508Z,1.00
2022-08-30T00:02:36.186Z,0.95
2022-08-30T00:05:04.337Z,0.57
2022-08-30T00:07:32.061Z,0.65
2022-08-30T00:09:59.770Z,0.70
2022-08-30T00:12:27.630Z,0.90
2022-08-30T00:14:56.189Z,0.60
2022-08-30T00:17:23.919Z,0.80
2022-08-30T00:19:53.008Z,0.60
2022-08-30T00:22:20.735Z,0.77
2022-08-30T00:24:49.423Z,0.82
2022-08-30T00:27:17.156Z,0.73
2022-08-30T00:29:45.088Z,0.60
2022-08-30T00:32:13.330Z,0.70
2022-08-30T00:34:41.094Z,0.70
2022-08-30T00:37:10.214Z,0.70
2022-08-30T00:39:37.990Z,0.73
2022-08-30T00:42:05.925Z,0.80
2022-08-30T00:44:33.687Z,0.68
2022-08-30T00:47:01.422Z,0.70
2022-08-30T00:49:29.382Z,0.70
2022-08-30T00:51:57.188Z,0.77
2022-08-30T00:54:26.377Z,0.63
2022-08-30T00:56:54.149Z,0.60
2022-08-30T00:59:24.171Z,0.90
2022-08-30T01:01:52.048Z,0.60
2022-08-30T01:04:21.296Z,0.80
2022-08-30T01:06:49.032Z,0.75
2022-08-30T01:09:16.822Z,0.60
2022-08-30T01:11:45.911Z,0.68
2022-08-30T01:14:13.759Z,0.60
2022-08-30T01:16:43.230Z,0.80
2022-08-30T01:19:13.760Z,0.55
2022-08-30T01:21:43.635Z,0.90
2022-08-30T01:24:12.836Z,0.60
2022-08-30T01:26:40.736Z,1.17
2022-08-30T01:29:09.632Z,0.70
2022-08-30T01:31:37.519Z,0.70
2022-08-30T01:34:07.538Z,0.60
2022-08-30T01:36:35.319Z,0.57
2022-08-30T01:39:03.076Z,0.77
2022-08-30T01:41:33.096Z,0.60
2022-08-30T01:44:01.863Z,0.52
2022-08-30T01:46:31.190Z,0.60
2022-08-30T01:48:59.120Z,0.70
2022-08-30T01:51:28.700Z,0.55
2022-08-30T01:53:56.519Z,0.70
2022-08-30T01:56:24.413Z,0.57
2022-08-30T01:58:54.068Z,0.77
2022-08-30T02:01:23.185Z,0.80
2022-08-30T02:03:51.021Z,0.60
2022-08-30T02:06:19.849Z,0.70
2022-08-30T02:08:47.789Z,1.05
2022-08-30T02:11:15.617Z,0.57
2022-08-30T02:13:44.095Z,0.70
2022-08-30T02:16:16.077Z,1.17
2022-08-30T02:18:43.876Z,0.80
2022-08-30T02:21:11.636Z,0.60
2022-08-30T02:23:39.384Z,0.65
2022-08-30T02:26:07.130Z,0.60
2022-08-30T02:28:34.875Z,0.60
2022-08-30T02:31:10.721Z,1.15
2022-08-30T02:33:40.585Z,0.57
2022-08-30T02:36:08.518Z,0.60
2022-08-30T02:38:36.323Z,0.60
2022-08-30T02:41:04.259Z,0.60
2022-08-30T02:43:31.978Z,0.60
2022-08-30T02:45:59.822Z,0.57
2022-08-30T02:48:27.645Z,1.38
2022-08-30T02:50:56.705Z,6.07
2022-08-30T02:53:24.446Z,0.50
2022-08-30T02:55:55.322Z,0.68
2022-08-30T02:58:25.574Z,0.52
2022-08-30T03:00:53.446Z,0.68
2022-08-30T03:03:21.681Z,0.70
2022-08-30T03:05:49.511Z,0.73
2022-08-30T03:08:18.548Z,0.90
2022-08-30T03:10:46.260Z,0.70
2022-08-30T03:13:13.971Z,0.52
2022-08-30T03:15:41.683Z,0.70
2022-08-30T03:18:10.395Z,0.63
2022-08-30T03:20:38.664Z,0.50
2022-08-30T03:23:06.434Z,0.70
2022-08-30T03:25:35.589Z,0.70
2022-08-30T03:28:03.717Z,1.75
2022-08-30T03:30:31.431Z,0.80
2022-08-30T03:32:59.241Z,0.50
2022-08-30T03:35:27.333Z,0.65
2022-08-30T03:38:01.325Z,0.95
2022-08-30T03:40:29.315Z,0.63
2022-08-30T03:42:59.093Z,0.55
2022-08-30T03:45:26.845Z,4.93
2022-08-30T03:47:54.579Z,0.60
2022-08-30T03:50:22.315Z,0.57
2022-08-30T03:52:50.042Z,0.80
2022-08-30T03:55:17.935Z,0.65
2022-08-30T03:57:45.687Z,0.60
2022-08-30T04:00:15.800Z,0.60
2022-08-30T04:02:43.686Z,0.70
2022-08-30T04:05:11.669Z,0.50
2022-08-30T04:07:41.700Z,0.63
2022-08-30T04:10:10.543Z,0.60
2022-08-30T04:12:38.828Z,0.75
2022-08-30T04:15:08.064Z,1.15
2022-08-30T04:17:37.216Z,0.60
2022-08-30T04:20:05.350Z,0.93
2022-08-30T04:22:33.083Z,0.60
2022-08-30T04:25:00.825Z,0.60
2022-08-30T04:27:28.621Z,0.60
2022-08-30T04:29:56.867Z,0.50
2022-08-30T04:32:24.628Z,0.65
2022-08-30T04:34:56.397Z,0.50
2022-08-30T04:37:24.096Z,0.50
2022-08-30T04:39:55.201Z,0.50
2022-08-30T04:42:22.919Z,0.60
2022-08-30T04:44:50.892Z,0.55
2022-08-30T04:47:18.708Z,0.75
2022-08-30T04:49:46.800Z,0.55
2022-08-30T04:52:15.891Z,0.68
2022-08-30T04:54:43.620Z,0.70
2022-08-30T04:57:11.380Z,0.57
2022-08-30T04:59:39.808Z,0.80
2022-08-30T05:02:07.605Z,0.60
2022-08-30T05:04:35.408Z,0.70
2022-08-30T05:07:03.116Z,0.75
2022-08-30T05:09:32.216Z,0.45
2022-08-30T05:11:59.924Z,0.57
2022-08-30T05:14:27.641Z,0.50
2022-08-30T05:16:55.441Z,0.90
2022-08-30T05:19:24.024Z,0.65
2022-08-30T05:21:51.792Z,0.60
2022-08-30T05:24:19.522Z,0.68
2022-08-30T05:29:21.544Z,0.68
2022-08-30T05:31:49.405Z,0.82
2022-08-30T05:34:17.245Z,0.50
2022-08-30T05:36:45.032Z,2.17
2022-08-30T05:39:12.804Z,6.07
2022-08-30T05:41:40.836Z,0.70
2022-08-30T05:44:10.348Z,4.15
2022-08-30T05:46:39.486Z,3.78
2022-08-30T05:49:07.882Z,2.05
2022-08-30T05:51:37.354Z,1.88
2022-08-30T05:54:10.929Z,3.45
2022-08-30T05:56:40.847Z,4.40
2022-08-30T05:59:10.072Z,2.80
2022-08-30T06:01:39.620Z,1.48
2022-08-30T06:04:08.208Z,2.67
2022-08-30T06:06:37.124Z,3.53
2022-08-30T06:09:06.043Z,5.78
2022-08-30T06:11:34.010Z,3.40
2022-08-30T06:14:01.820Z,8.15
2022-08-30T06:16:30.971Z,8.30
2022-08-30T06:18:59.256Z,9.30
2022-08-30T06:21:27.929Z,16.90
2022-08-30T06:23:55.840Z,7.95
2022-08-30T06:26:23.869Z,4.07
2022-08-30T06:28:51.819Z,4.32
2022-08-30T06:31:20.336Z,8.32
2022-08-30T06:33:49.600Z,3.22
2022-08-30T06:36:19.135Z,6.65
2022-08-30T06:38:47.004Z,4.88
2022-08-30T06:41:16.678Z,2.97
2022-08-30T06:43:48.911Z,3.22
2022-08-30T06:46:19.124Z,2.20
2022-08-30T06:48:48.361Z,2.22
2022-08-30T06:51:20.811Z,3.75
2022-08-30T06:53:49.779Z,3.03
2022-08-30T06:56:17.616Z,5.53
2022-08-30T06:58:45.669Z,3.13
2022-08-30T07:01:13.785Z,4.97
2022-08-30T07:03:41.503Z,6.38
2022-08-30T07:06:09.477Z,6.25
2022-08-30T07:08:38.833Z,7.03
2022-08-30T07:11:07.465Z,5.82
2022-08-30T07:13:35.288Z,4.72
2022-08-30T07:16:03.235Z,5.97
2022-08-30T07:18:48.624Z,5.20
2022-08-30T07:21:17.091Z,15.32
2022-08-30T07:23:50.228Z,15.57
2022-08-30T07:26:22.452Z,12.20
2022-08-30T07:28:56.042Z,12.05
2022-08-30T07:31:24.230Z,14.95
2022-08-30T07:33:52.240Z,14.18
2022-08-30T07:36:21.763Z,15.65
2022-08-30T07:38:51.120Z,16.92
2022-08-30T07:41:20.441Z,10.48
2022-08-30T07:43:48.402Z,12.23
2022-08-30T07:46:16.292Z,12.77
2022-08-30T07:48:44.174Z,10.57
2022-08-30T07:51:13.104Z,12.30
2022-08-30T07:53:40.933Z,9.77
2022-08-30T07:56:10.097Z,9.65
2022-08-30T07:58:38.471Z,4.97
2022-08-30T08:01:07.408Z,8.05
2022-08-30T08:03:35.317Z,6.57
2022-08-30T08:06:03.788Z,5.05
2022-08-30T08:08:31.700Z,4.43
2022-08-30T08:10:59.492Z,2.17
2022-08-30T08:13:32.635Z,3.85
2022-08-30T08:16:00.619Z,4.47
2022-08-30T08:18:28.449Z,2.65
2022-08-30T08:20:56.922Z,2.40
2022-08-30T08:23:24.799Z,3.92
2022-08-30T08:25:52.508Z,4.18
2022-08-30T08:28:20.279Z,4.40
2022-08-30T08:30:50.069Z,3.85
2022-08-30T08:33:18.681Z,2.85
2022-08-30T08:35:46.484Z,3.10
2022-08-30T08:38:14.183Z,4.57
2022-08-30T08:40:44.905Z,11.15
2022-08-30T08:43:13.513Z,61.22
2022-08-30T08:45:44.644Z,15.82
2022-08-30T08:48:19.720Z,6.82
2022-08-30T08:51:02.727Z,5.28
2022-08-30T08:53:45.594Z,2.15
2022-08-30T08:56:16.441Z,4.15
2022-08-30T08:58:45.977Z,8.88
2022-08-30T09:01:15.241Z,6.85
2022-08-30T09:03:44.425Z,8.05
2022-08-30T09:06:24.507Z,7.22
2022-08-30T09:08:52.244Z,4.30
2022-08-30T09:11:26.071Z,4.80
2022-08-30T09:13:54.571Z,10.40
2022-08-30T09:16:54.108Z,8.23
2022-08-30T09:19:34.458Z,8.50
2022-08-30T09:22:04.839Z,10.55
2022-08-30T09:24:40.592Z,9.60
2022-08-30T09:27:24.035Z,11.23
2022-08-30T09:29:57.647Z,4.85
2022-08-30T09:32:33.683Z,5.38
2022-08-30T09:35:02.721Z,25.88
2022-08-30T09:37:45.643Z,15.90
2022-08-30T09:40:16.581Z,11.98
2022-08-30T09:42:59.238Z,9.98
2022-08-30T09:45:31.776Z,8.73
2022-08-30T09:47:59.752Z,7.55
2022-08-30T09:50:30.872Z,8.25
2022-08-30T09:53:09.696Z,4.15
2022-08-30T09:55:47.595Z,3.40
2022-08-30T09:58:20.016Z,4.53
2022-08-30T10:00:49.799Z,5.10
2022-08-30T10:03:35.682Z,2.47
2022-08-30T10:06:13.936Z,4.53
2022-08-30T10:08:58.569Z,3.40
2022-08-30T10:11:29.539Z,1.95
2022-08-30T10:14:34.690Z,5.75
2022-08-30T10:17:06.561Z,5.97
2022-08-30T10:19:47.381Z,9.27
2022-08-30T10:22:17.942Z,5.10
2022-08-30T10:24:48.984Z,25.88
2022-08-30T10:27:18.800Z,5.93
2022-08-30T10:29:48.540Z,5.80
2022-08-30T10:32:20.172Z,10.15
2022-08-30T10:34:51.073Z,6.00
2022-08-30T10:37:22.246Z,5.05
2022-08-30T10:39:51.247Z,15.48
2022-08-30T10:42:20.892Z,14.38
2022-08-30T10:44:50.591Z,7.90
2022-08-30T10:47:23.823Z,7.40
2022-08-30T10:49:54.405Z,5.75
2022-08-30T10:52:26.733Z,7.97
2022-08-30T10:54:56.323Z,4.47
2022-08-30T10:57:25.573Z,3.88
2022-08-30T10:59:55.634Z,3.42
2022-08-30T11:02:56.919Z,4.65
2022-08-30T11:05:35.500Z,3.85
2022-08-30T11:08:22.111Z,4.55
2022-08-30T11:10:54.549Z,3.60
2022-08-30T11:13:23.921Z,3.70
2022-08-30T11:15:59.058Z,5.85
2022-08-30T11:18:29.128Z,5.80
2022-08-30T11:21:18.483Z,2.50
2022-08-30T11:24:11.112Z,4.50
2022-08-30T11:26:59.663Z,9.85
2022-08-30T11:29:36.425Z,6.78
2022-08-30T11:32:46.813Z,3.33
2022-08-30T11:35:29.964Z,3.40
2022-08-30T11:37:57.674Z,4.28
2022-08-30T11:40:48.222Z,18.08
2022-08-30T11:43:51.420Z,7.95
2022-08-30T11:46:24.231Z,13.40
2022-08-30T11:48:55.422Z,31.95
2022-08-30T11:52:23.644Z,16.77
2022-08-30T11:54:52.797Z,12.80
2022-08-30T11:57:26.225Z,14.98
2022-08-30T11:59:59.208Z,12.10
2022-08-30T12:03:00.594Z,5.90
2022-08-30T12:05:54.572Z,10.68
2022-08-30T12:08:44.776Z,19.35
2022-08-30T12:12:00.779Z,6.20
2022-08-30T12:14:51.926Z,14.57
2022-08-30T12:17:46.509Z,14.23
2022-08-30T12:20:18.361Z,28.50
2022-08-30T12:22:46.360Z,19.52
2022-08-30T12:25:16.676Z,9.75
2022-08-30T12:27:44.500Z,38.95
2022-08-30T12:30:14.070Z,27.20
2022-08-30T12:32:45.426Z,17.58
2022-08-30T12:35:19.454Z,34.85
2022-08-30T12:37:56.224Z,13.45
2022-08-30T12:40:24.505Z,22.08
2022-08-30T12:42:53.297Z,60.38
2022-08-30T12:45:23.525Z,51.05
2022-08-30T12:47:52.527Z,33.47
2022-08-30T12:50:21.961Z,20.73
2022-08-30T12:52:56.692Z,29.70
2022-08-30T12:55:26.713Z,47.83
2022-08-30T12:58:01.077Z,33.60
2022-08-30T13:00:31.483Z,119.22
2022-08-30T13:03:00.710Z,48.60
2022-08-30T13:05:47.757Z,43.35
2022-08-30T13:08:19.496Z,17.65
2022-08-30T13:10:51.813Z,127.38
2022-08-30T13:13:28.914Z,120.38
2022-08-30T13:15:57.957Z,51.08
2022-08-30T13:18:30.437Z,25.70
2022-08-30T13:21:11.885Z,25.38
2022-08-30T13:23:40.402Z,22.10
2022-08-30T13:26:08.478Z,16.67
2022-08-30T13:28:48.700Z,13.20
2022-08-30T13:31:18.025Z,17.08
2022-08-30T13:33:46.569Z,18.63
2022-08-30T13:36:14.518Z,6.82
2022-08-30T13:38:43.030Z,11.05
2022-08-30T13:41:11.003Z,16.17
2022-08-30T13:46:28.410Z,8.50
2022-08-30T13:48:59.563Z,12.70
2022-08-30T13:51:27.289Z,9.15
2022-08-30T13:53:55.172Z,9.05
2022-08-30T13:56:24.693Z,8.23
2022-08-30T13:58:52.886Z,7.43
2022-08-30T14:01:20.676Z,6.72
2022-08-30T14:07:11.832Z,6.53
2022-08-30T14:09:25.123Z,6.60
2022-08-30T14:11:52.847Z,4.75
2022-08-30T14:14:41.953Z,7.05
2022-08-30T14:17:08.940Z,7.28
2022-08-30T14:19:38.278Z,5.45
2022-08-30T14:22:06.183Z,7.15
2022-08-30T14:24:34.096Z,3.13
2022-08-30T14:27:02.452Z,4.05
2022-08-30T14:29:31.550Z,3.90
2022-08-30T14:32:00.320Z,5.43
2022-08-30T14:34:28.272Z,8.15
2022-08-30T14:36:58.164Z,7.13
2022-08-30T14:39:26.988Z,8.63
2022-08-30T14:41:55.494Z,4.30
2022-08-30T14:44:23.366Z,2.78
2022-08-30T14:46:51.763Z,2.75
2022-08-30T14:49:21.444Z,4.88
2022-08-30T14:51:49.276Z,2.33
2022-08-30T14:54:18.700Z,4.97
2022-08-30T14:56:46.396Z,3.17
2022-08-30T14:59:14.308Z,4.15
2022-08-30T15:01:42.156Z,2.20
2022-08-30T15:04:10.073Z,2.42
2022-08-30T15:06:38.303Z,3.33
2022-08-30T15:09:06.154Z,4.07
2022-08-30T15:11:35.307Z,2.80
2022-08-30T15:14:03.000Z,2.45
2022-08-30T15:16:32.191Z,4.70
2022-08-30T15:19:00.192Z,3.63
2022-08-30T15:21:30.497Z,2.22
2022-08-30T15:23:58.317Z,3.30
2022-08-30T15:26:26.187Z,2.20
2022-08-30T15:28:56.743Z,3.42
2022-08-30T15:31:25.848Z,1.52
2022-08-30T15:33:53.555Z,2.80
2022-08-30T15:36:21.243Z,1.10
2022-08-30T15:38:48.967Z,2.75
2022-08-30T15:41:16.678Z,1.95
2022-08-30T15:43:44.371Z,2.30
2022-08-30T15:46:18.827Z,2.25
2022-08-30T15:48:46.993Z,1.75
2022-08-30T15:51:16.573Z,2.33
2022-08-30T15:53:44.328Z,2.30
2022-08-30T15:56:12.095Z,3.47
2022-08-30T15:58:40.001Z,1.88
2022-08-30T16:01:08.915Z,2.10
2022-08-30T16:03:40.284Z,1.98
2022-08-30T16:06:11.770Z,1.52
2022-08-30T16:08:39.522Z,1.50
2022-08-30T16:11:07.540Z,2.38
2022-08-30T16:13:35.232Z,1.42
2022-08-30T16:16:03.434Z,1.58
2022-08-30T16:18:31.317Z,2.20
2022-08-30T16:21:05.019Z,1.88
2022-08-30T16:23:33.578Z,1.67
2022-08-30T16:26:04.228Z,3.72
2022-08-30T16:28:32.268Z,2.08
2022-08-30T16:31:00.033Z,1.17
2022-08-30T16:33:29.905Z,1.45
2022-08-30T16:35:57.770Z,1.23
2022-08-30T16:38:27.015Z,1.73
2022-08-30T16:40:54.958Z,1.27
2022-08-30T16:43:24.371Z,1.15
2022-08-30T16:45:52.429Z,1.13
2022-08-30T16:48:21.480Z,1.13
2022-08-30T16:50:49.182Z,1.15
2022-08-30T16:53:16.960Z,0.85
2022-08-30T16:55:46.087Z,1.90
2022-08-30T16:58:18.713Z,0.70
2022-08-30T17:00:48.654Z,1.23
2022-08-30T17:03:16.570Z,1.20
2022-08-30T17:05:44.979Z,1.15
2022-08-30T17:08:12.751Z,1.55
2022-08-30T17:10:43.807Z,1.25
2022-08-30T17:13:19.000Z,1.50
2022-08-30T17:15:47.975Z,1.40
2022-08-30T17:18:16.399Z,2.15
2022-08-30T17:20:44.522Z,1.05
2022-08-30T17:23:12.401Z,0.90
2022-08-30T17:25:41.163Z,2.15
2022-08-30T17:28:08.869Z,0.90
2022-08-30T17:30:38.068Z,1.73
2022-08-30T17:33:05.756Z,2.08
2022-08-30T17:35:33.465Z,0.70
2022-08-30T17:38:01.332Z,0.85
2022-08-30T17:40:29.349Z,1.60
2022-08-30T17:42:57.114Z,0.77
2022-08-30T17:45:24.805Z,1.05
2022-08-30T17:47:53.906Z,1.65
2022-08-30T17:50:22.039Z,0.80
2022-08-30T17:52:51.049Z,0.93
2022-08-30T17:55:19.002Z,0.70
2022-08-30T17:57:46.711Z,1.52
2022-08-30T18:00:20.008Z,2.25
2022-08-30T18:02:49.170Z,0.88
2022-08-30T18:05:18.229Z,1.92
2022-08-30T18:07:52.549Z,1.58
2022-08-30T18:10:28.466Z,1.20
2022-08-30T18:13:08.133Z,1.20
2022-08-30T18:15:36.474Z,1.98
2022-08-30T18:18:06.474Z,1.13
2022-08-30T18:20:35.573Z,0.68
2022-08-30T18:23:03.301Z,1.27
2022-08-30T18:25:31.398Z,0.70
2022-08-30T18:27:59.284Z,1.83
2022-08-30T18:30:33.260Z,1.00
2022-08-30T18:33:02.780Z,1.00
2022-08-30T18:35:30.774Z,1.15
2022-08-30T18:37:59.885Z,1.33
2022-08-30T18:40:27.740Z,1.02
2022-08-30T18:42:55.468Z,1.52
2022-08-30T18:45:23.800Z,1.30
2022-08-30T18:47:51.533Z,0.90
2022-08-30T18:50:19.314Z,1.00
2022-08-30T18:52:47.888Z,1.10
2022-08-30T18:55:16.966Z,0.88
2022-08-30T18:57:45.343Z,1.15
2022-08-30T19:00:15.787Z,0.80
2022-08-30T19:02:43.734Z,1.23
2022-08-30T19:05:11.890Z,1.27
2022-08-30T19:07:40.401Z,1.02
2022-08-30T19:10:08.752Z,1.25
2022-08-30T19:12:41.539Z,1.13
2022-08-30T19:15:10.866Z,0.88
2022-08-30T19:17:39.723Z,0.60
2022-08-30T19:20:08.943Z,2.35
2022-08-30T19:23:05.768Z,0.90
2022-08-30T19:25:25.695Z,0.75
2022-08-30T19:27:54.709Z,1.50
2022-08-30T19:30:28.857Z,1.05
2022-08-30T19:32:57.403Z,1.30
2022-08-30T19:35:25.241Z,0.95
2022-08-30T19:37:52.925Z,0.80
2022-08-30T19:40:20.818Z,0.93
2022-08-30T19:42:48.676Z,0.60
2022-08-30T19:45:18.697Z,0.80
2022-08-30T19:47:49.519Z,1.13
2022-08-30T19:50:17.522Z,1.55
2022-08-30T19:52:51.070Z,1.00
2022-08-30T19:55:28.150Z,0.68
2022-08-30T19:57:56.568Z,3.17
2022-08-30T20:00:25.576Z,0.90
2022-08-30T20:02:53.294Z,0.70
2022-08-30T20:05:22.225Z,1.23
2022-08-30T20:07:51.748Z,1.63
2022-08-30T20:10:19.805Z,1.25
2022-08-30T20:12:50.175Z,1.50
2022-08-30T20:15:18.456Z,1.50
2022-08-30T20:18:03.324Z,1.40
2022-08-30T20:20:36.514Z,2.03
2022-08-30T20:23:04.967Z,1.35
2022-08-30T20:25:32.709Z,0.77
2022-08-30T20:28:01.546Z,0.80
2022-08-30T20:30:29.276Z,0.98
2022-08-30T20:32:58.403Z,1.13
2022-08-30T20:35:26.087Z,1.05
2022-08-30T20:37:53.861Z,1.20
2022-08-30T20:40:21.870Z,1.25
2022-08-30T20:42:49.796Z,1.10
2022-08-30T20:45:18.033Z,1.10
2022-08-30T20:47:45.934Z,1.60
2022-08-30T20:50:16.499Z,1.55
2022-08-30T20:52:44.361Z,0.82
2022-08-30T20:55:12.445Z,1.00
2022-08-30T20:57:40.158Z,1.00
2022-08-30T21:00:09.753Z,1.42
2022-08-30T21:02:38.359Z,1.08
2022-08-30T21:05:15.840Z,1.13
2022-08-30T21:07:43.909Z,1.13
2022-08-30T21:10:11.656Z,1.10
2022-08-30T21:12:39.448Z,1.15
2022-08-30T21:15:26.994Z,2.22
2022-08-30T21:17:56.133Z,2.03
2022-08-30T21:20:25.128Z,1.33
2022-08-30T21:22:52.860Z,1.23
2022-08-30T21:25:20.658Z,1.10
2022-08-30T21:27:48.363Z,1.20
2022-08-30T21:30:16.245Z,1.20
2022-08-30T21:32:43.951Z,1.10
2022-08-30T21:35:41.067Z,1.50
2022-08-30T21:38:10.196Z,1.35
2022-08-30T21:40:38.019Z,2.13
2022-08-30T21:43:07.439Z,1.30
2022-08-30T21:45:38.133Z,1.05
2022-08-30T21:48:05.992Z,1.77
2022-08-30T21:50:33.743Z,1.50
2022-08-30T21:53:01.648Z,1.50
2022-08-30T21:55:30.725Z,1.83
2022-08-30T21:57:58.431Z,1.85
2022-08-30T22:00:26.190Z,1.70
2022-08-30T22:02:54.393Z,2.60
2022-08-30T22:05:22.130Z,1.90
2022-08-30T22:07:49.811Z,2.10
2022-08-30T22:10:18.027Z,1.90
2022-08-30T22:12:47.049Z,1.98
2022-08-30T22:15:15.268Z,2.10
2022-08-30T22:17:44.188Z,2.05
2022-08-30T22:20:18.339Z,2.08
2022-08-30T22:22:46.506Z,3.88
2022-08-30T22:25:14.519Z,2.10
2022-08-30T22:27:42.186Z,2.30
2022-08-30T22:30:13.000Z,2.40
2022-08-30T22:32:40.854Z,2.50
2022-08-30T22:35:09.139Z,2.50
2022-08-30T22:37:36.833Z,2.58
2022-08-30T22:40:04.983Z,2.60
2022-08-30T22:42:32.725Z,2.55
2022-08-30T22:45:00.425Z,2.42
2022-08-30T22:47:29.427Z,2.65
2022-08-30T22:49:57.129Z,3.10
2022-08-30T22:52:25.554Z,2.95
2022-08-30T22:54:53.326Z,3.50
2022-08-30T22:57:20.995Z,3.55
2022-08-30T22:59:48.693Z,3.50
2022-08-30T23:02:16.473Z,4.05
2022-08-30T23:04:45.800Z,3.72
2022-08-30T23:07:13.542Z,3.85
2022-08-30T23:09:41.217Z,4.05
2022-08-30T23:12:09.464Z,4.55
2022-08-30T23:14:37.152Z,4.95
2022-08-30T23:17:04.898Z,5.10
2022-08-30T23:19:32.827Z,5.28
2022-08-30T23:22:02.179Z,6.05
2022-08-30T23:24:49.194Z,5.97
2022-08-30T23:27:34.431Z,6.45
2022-08-30T23:30:20.070Z,7.20
2022-08-30T23:33:05.808Z,7.13
2022-08-30T23:35:51.220Z,6.95
2022-08-30T23:38:38.093Z,7.75
2022-08-30T23:41:23.716Z,8.07
2022-08-30T23:44:19.093Z,8.20
2022-08-30T23:47:04.460Z,8.40
2022-08-30T23:49:50.020Z,8.38
2022-08-30T23:52:35.689Z,8.32
2022-08-30T23:55:22.711Z,8.30
2022-08-30T23:58:08.212Z,7.88
